Time;durP1;ratioP1;P1;durP2;ratioP2;P2;SDS_P1;SDS_P2;PMS_P1;PMS_P2;Temp;Humidity;BMP_temperature;BMP_pressure;BME280_temperature;BME280_humidity;BME280_pressure;Samples;Min_cycle;Max_cycle;Signal;HPM_P1;HPM_P2
2023/09/24 00:01:48;;;;;;;13.75;9.48;;;;;;;10.72;100.00;102172.22;5033705;28;20418;-62
2023/09/24 00:04:14;;;;;;;12.40;10.20;;;;;;;10.82;100.00;102168.22;5038634;28;20045;-62
2023/09/24 00:06:42;;;;;;;13.60;9.77;;;;;;;10.84;100.00;102176.16;5051908;28;20055;-62
2023/09/24 00:09:08;;;;;;;10.88;8.65;;;;;;;10.79;100.00;102170.16;5053254;28;20036;-62
2023/09/24 00:11:34;;;;;;;13.93;10.88;;;;;;;10.73;100.00;102175.75;5052047;28;20024;-62
2023/09/24 00:13:59;;;;;;;4.78;4.35;;;;;;;10.88;100.00;102173.31;5055631;28;20032;-62
2023/09/24 00:16:25;;;;;;;6.78;4.97;;;;;;;10.92;100.00;102179.34;5037753;28;20025;-62
2023/09/24 00:18:50;;;;;;;11.18;10.05;;;;;;;10.72;100.00;102172.22;5067287;28;20031;-62
2023/09/24 00:21:16;;;;;;;11.35;5.22;;;;;;;10.89;100.00;102183.00;5071914;28;20036;-62
2023/09/24 00:23:41;;;;;;;10.43;5.30;;;;;;;10.88;100.00;102183.97;5053681;28;20033;-62
2023/09/24 00:26:06;;;;;;;12.57;10.13;;;;;;;10.68;100.00;102182.13;5036813;28;20040;-62
2023/09/24 00:28:32;;;;;;;10.55;9.55;;;;;;;10.69;100.00;102188.31;5070468;28;20116;-61
2023/09/24 00:31:00;;;;;;;14.27;5.68;;;;;;;10.75;100.00;102173.88;5039981;28;20041;-62
2023/09/24 00:33:25;;;;;;;12.10;9.88;;;;;;;10.61;100.00;102185.97;5053723;28;20017;-62
2023/09/24 00:35:51;;;;;;;11.75;10.40;;;;;;;10.64;100.00;102198.28;5067665;28;20509;-62
2023/09/24 00:38:20;;;;;;;14.13;10.15;;;;;;;10.61;100.00;102195.75;5055152;28;20486;-62
2023/09/24 00:40:48;;;;;;;10.83;9.73;;;;;;;10.47;100.00;102199.00;5055776;28;20131;-62
2023/09/24 00:43:30;;;;;;;6.55;5.30;;;;;;;10.74;100.00;102201.44;5066019;28;20017;-62
2023/09/24 00:45:59;;;;;;;7.05;5.35;;;;;;;10.72;100.00;102203.28;5049395;28;20029;-62
2023/09/24 00:48:28;;;;;;;12.65;11.30;;;;;;;10.47;100.00;102188.34;5053530;28;20430;-62
2023/09/24 00:50:58;;;;;;;7.85;5.97;;;;;;;10.71;100.00;102207.75;5057596;28;20040;-62
2023/09/24 00:53:26;;;;;;;10.32;5.55;;;;;;;10.71;100.00;102209.53;5052921;28;20021;-62
2023/09/24 00:55:53;;;;;;;6.88;6.15;;;;;;;10.72;100.00;102211.28;5033713;28;20033;-62
2023/09/24 00:58:18;;;;;;;10.23;6.60;;;;;;;10.72;100.00;102216.59;5053386;28;20549;-62
2023/09/24 01:00:46;;;;;;;8.73;6.00;;;;;;;10.71;100.00;102205.09;5051681;28;20024;-62
2023/09/24 01:03:12;;;;;;;6.80;6.10;;;;;;;10.68;100.00;102199.91;5064066;28;20021;-62
2023/09/24 01:05:37;;;;;;;8.48;6.10;;;;;;;10.68;100.00;102199.91;5040344;28;20048;-63
2023/09/24 01:08:04;;;;;;;8.55;5.95;;;;;;;10.71;100.00;102206.84;5050942;28;20122;-62
2023/09/24 01:10:29;;;;;;;9.10;6.18;;;;;;;10.66;100.00;102194.63;5064049;28;20021;-62
2023/09/24 01:13:04;;;;;;;16.13;7.95;;;;;;;10.67;100.00;102195.50;5058777;28;20111;-62
2023/09/24 01:15:31;;;;;;;13.43;12.07;;;;;;;10.50;100.00;102203.28;5053795;28;20036;-62
2023/09/24 01:17:57;;;;;;;13.52;7.85;;;;;;;10.63;100.00;102207.19;5040115;28;20060;-62
2023/09/24 01:20:24;;;;;;;13.60;11.80;;;;;;;10.44;100.00;102207.97;5068054;28;20028;-62
2023/09/24 01:22:50;;;;;;;15.68;11.38;;;;;;;10.38;100.00;102197.56;5045111;28;20024;-62
2023/09/24 01:25:18;;;;;;;8.80;6.72;;;;;;;10.53;100.00;102197.84;5042191;28;20083;-62
2023/09/24 01:27:44;;;;;;;8.68;7.03;;;;;;;10.58;100.00;102211.84;5058941;28;20075;-62
2023/09/24 01:30:10;;;;;;;7.82;6.47;;;;;;;10.55;100.00;102210.16;5052465;28;20027;-62
2023/09/24 01:32:36;;;;;;;13.40;12.02;;;;;;;10.35;100.00;102212.75;5062439;28;20040;-62
2023/09/24 01:35:02;;;;;;;16.48;12.48;;;;;;;10.32;100.00;102203.09;5061329;28;20021;-62
2023/09/24 01:37:28;;;;;;;15.90;12.52;;;;;;;10.23;100.00;102203.44;5056334;28;20024;-62
2023/09/24 01:39:54;;;;;;;7.25;5.95;;;;;;;10.44;100.00;102207.97;5049398;28;20079;-62
2023/09/24 01:42:20;;;;;;;8.25;6.53;;;;;;;10.39;100.00;102193.97;5053953;28;20031;-63
2023/09/24 01:44:46;;;;;;;14.77;12.52;;;;;;;10.27;100.00;102196.28;5053639;28;20562;-62
2023/09/24 01:47:11;;;;;;;15.30;13.20;;;;;;;10.23;100.00;102200.78;5067822;28;20033;-62
2023/09/24 01:49:37;;;;;;;13.82;12.40;;;;;;;10.16;100.00;102200.19;5052687;28;20021;-62
2023/09/24 01:52:04;;;;;;;14.00;12.57;;;;;;;10.16;100.00;102207.28;5053615;28;20071;-62
2023/09/24 01:54:30;;;;;;;13.50;12.30;;;;;;;10.13;100.00;102202.09;5051291;28;20025;-62
2023/09/24 01:56:57;;;;;;;13.57;12.25;;;;;;;10.14;100.00;102209.13;5057278;28;20046;-62
2023/09/24 01:59:23;;;;;;;14.55;13.05;;;;;;;10.14;100.00;102210.00;5050462;28;20128;-62
2023/09/24 02:01:50;;;;;;;9.48;6.38;;;;;;;10.28;100.00;102203.31;5057051;28;20464;-62
2023/09/24 02:04:16;;;;;;;11.73;6.60;;;;;;;10.28;100.00;102195.34;5068633;28;20025;-62
2023/09/24 02:06:41;;;;;;;13.68;12.15;;;;;;;10.04;100.00;102195.34;5058386;28;20047;-62
2023/09/24 02:09:07;;;;;;;14.32;12.85;;;;;;;10.08;100.00;102204.06;5053055;28;20063;-61
2023/09/24 02:11:32;;;;;;;11.73;6.38;;;;;;;10.21;100.00;102200.88;5035092;28;20432;-62
2023/09/24 02:13:58;;;;;;;14.60;13.10;;;;;;;10.04;100.00;102198.00;5059597;28;20484;-62
2023/09/24 02:16:24;;;;;;;9.20;6.25;;;;;;;10.19;100.00;102209.81;5060625;28;20032;-62
2023/09/24 02:18:49;;;;;;;13.88;12.40;;;;;;;10.06;100.00;102208.56;5047861;28;20037;-62
2023/09/24 02:21:17;;;;;;;13.75;12.18;;;;;;;9.95;100.00;102215.19;5053294;28;20129;-62
2023/09/24 02:23:43;;;;;;;14.30;12.45;;;;;;;9.88;100.00;102218.13;5057640;28;20108;-62
2023/09/24 02:26:14;;;;;;;10.00;6.50;;;;;;;10.06;100.00;102222.75;5063318;28;20110;-62
2023/09/24 02:28:40;;;;;;;13.88;12.68;;;;;;;9.77;100.00;102215.88;5051083;28;20017;-62
2023/09/24 02:31:06;;;;;;;15.38;13.18;;;;;;;9.87;100.00;102227.03;5054574;28;20025;-61
2023/09/24 02:33:31;;;;;;;13.98;12.57;;;;;;;9.89;100.00;102227.84;5035370;28;20017;-62
2023/09/24 02:35:57;;;;;;;9.75;6.57;;;;;;;9.99;100.00;102224.75;5055522;28;20027;-62
2023/09/24 02:38:24;;;;;;;9.07;6.18;;;;;;;10.00;100.00;102220.31;5049326;28;20557;-62
2023/09/24 02:40:50;;;;;;;8.25;6.55;;;;;;;10.04;100.00;102232.56;5067246;28;20028;-62
2023/09/24 02:43:15;;;;;;;10.82;7.18;;;;;;;10.02;100.00;102216.66;5034477;28;20032;-62
2023/09/24 02:45:41;;;;;;;9.80;6.70;;;;;;;10.05;100.00;102228.97;5056332;28;20023;-61
2023/09/24 02:48:06;;;;;;;15.73;7.78;;;;;;;10.03;100.00;102233.50;5061572;28;20047;-62
2023/09/24 02:50:32;;;;;;;16.70;12.07;;;;;;;9.77;100.00;102230.03;5036940;28;20049;-62
2023/09/24 02:53:00;;;;;;;7.88;6.72;;;;;;;9.91;100.00;102225.97;5033137;28;20025;-62
2023/09/24 02:55:27;;;;;;;9.80;6.78;;;;;;;9.95;100.00;102230.25;5034790;28;20025;-62
2023/09/24 02:57:52;;;;;;;9.23;6.78;;;;;;;9.89;100.00;102211.91;5066635;28;20037;-62
2023/09/24 03:01:05;;;;;;;14.20;12.90;;;;;;;9.80;100.00;102228.19;5041943;28;20027;-61
2023/09/24 03:03:05;;;;;;;15.38;12.35;;;;;;;9.73;100.00;102219.56;5037027;28;20465;-62
2023/09/24 03:05:31;;;;;;;15.75;12.20;;;;;;;9.75;100.00;102223.91;5055945;28;20104;-62
2023/09/24 03:08:02;;;;;;;13.40;12.07;;;;;;;9.63;100.00;102226.16;5028143;28;20021;-62
2023/09/24 03:10:31;;;;;;;9.18;5.80;;;;;;;9.83;100.00;102228.06;5048698;28;20056;-62
2023/09/24 03:12:57;;;;;;;12.85;11.70;;;;;;;9.58;100.00;102228.09;5054083;28;20379;-62
2023/09/24 03:15:25;;;;;;;15.52;12.82;;;;;;;9.62;100.00;102235.91;5046419;28;20434;-62
2023/09/24 03:17:51;;;;;;;9.13;6.78;;;;;;;9.79;100.00;102237.94;5027174;28;20060;-62
2023/09/24 03:20:17;;;;;;;13.55;12.25;;;;;;;9.63;100.00;102229.66;5063890;28;20051;-62
2023/09/24 03:22:50;;;;;;;13.38;12.18;;;;;;;9.60;100.00;102244.84;5037971;28;20021;-62
2023/09/24 03:25:22;;;;;;;9.90;6.53;;;;;;;9.75;100.00;102242.50;5054610;28;20032;-62
2023/09/24 03:27:56;;;;;;;13.10;11.23;;;;;;;9.57;100.00;102240.53;5031325;28;20025;-62
2023/09/24 03:30:22;;;;;;;12.27;11.20;;;;;;;9.52;100.00;102245.13;5068800;28;20013;-61
2023/09/24 03:32:53;;;;;;;13.23;11.88;;;;;;;9.43;100.00;102256.09;5058313;28;20488;-61
2023/09/24 03:35:22;;;;;;;7.82;5.68;;;;;;;9.66;100.00;102248.16;5052415;28;20078;-62
2023/09/24 03:37:48;;;;;;;13.68;12.35;;;;;;;9.40;100.00;102241.13;5057068;28;20079;-62
2023/09/24 03:40:15;;;;;;;12.70;11.05;;;;;;;9.45;100.00;102254.25;5040640;28;20427;-62
2023/09/24 03:42:44;;;;;;;9.68;6.38;;;;;;;9.59;100.00;102262.59;5039872;28;20020;-62
2023/09/24 03:45:11;;;;;;;14.68;11.30;;;;;;;9.41;100.00;102263.22;5065293;28;20032;-62
2023/09/24 03:47:37;;;;;;;13.95;11.55;;;;;;;9.40;100.00;102257.06;5063824;28;20045;-62
2023/09/24 03:50:06;;;;;;;13.35;11.85;;;;;;;9.35;100.00;102263.44;5063036;28;20067;-62
2023/09/24 03:52:35;;;;;;;12.57;11.35;;;;;;;9.46;100.00;102259.50;5058290;28;20920;-62
2023/09/24 03:55:00;;;;;;;8.98;5.72;;;;;;;9.56;100.00;102270.69;5055325;28;20032;-62
2023/09/24 03:57:29;;;;;;;7.88;5.22;;;;;;;9.59;100.00;102264.34;5057501;28;20041;-61
2023/09/24 03:59:56;;;;;;;13.25;11.00;;;;;;;9.38;100.00;102260.69;5044163;28;20032;-62
2023/09/24 04:02:26;;;;;;;6.82;5.18;;;;;;;9.51;100.00;102259.34;5058073;28;20074;-62
2023/09/24 04:04:52;;;;;;;12.13;10.63;;;;;;;9.38;100.00;102269.50;5053732;28;20067;-62
2023/09/24 04:07:21;;;;;;;12.88;5.53;;;;;;;9.54;100.00;102269.84;5037423;28;20056;-62
2023/09/24 04:09:50;;;;;;;13.40;10.70;;;;;;;9.38;100.00;102263.34;5021253;28;20489;-62
2023/09/24 04:12:15;;;;;;;7.55;5.53;;;;;;;9.49;100.00;102264.69;5040569;28;20024;-62
2023/09/24 04:14:43;;;;;;;12.25;10.15;;;;;;;9.28;100.00;102271.63;5063164;28;20484;-62
2023/09/24 04:17:09;;;;;;;11.68;10.55;;;;;;;9.30;100.00;102274.25;5036712;28;20037;-62
2023/09/24 04:19:35;;;;;;;12.57;11.00;;;;;;;9.28;100.00;102279.59;5077497;28;20402;-62
2023/09/24 04:22:00;;;;;;;9.35;5.97;;;;;;;9.43;100.00;102275.53;5061198;28;20046;-62
2023/09/24 04:24:26;;;;;;;14.07;10.15;;;;;;;9.27;100.00;102272.56;5054652;28;20072;-62
2023/09/24 04:26:52;;;;;;;6.93;5.22;;;;;;;9.43;100.00;102278.19;5051116;28;20463;-62
2023/09/24 04:29:18;;;;;;;6.43;5.13;;;;;;;9.44;100.00;102287.03;5052813;28;20490;-62
2023/09/24 04:31:43;;;;;;;9.63;5.47;;;;;;;9.41;100.00;102276.50;5050801;28;20388;-62
2023/09/24 04:34:12;;;;;;;10.80;9.77;;;;;;;9.17;100.00;102278.22;5042116;28;20025;-62
2023/09/24 04:36:38;;;;;;;9.30;5.38;;;;;;;9.36;100.00;102274.03;5050547;28;20037;-62
2023/09/24 04:39:05;;;;;;;11.90;10.13;;;;;;;9.24;100.00;102283.28;5052240;28;20025;-62
2023/09/24 04:41:31;;;;;;;8.75;5.25;;;;;;;9.39;100.00;102289.84;5052964;28;20055;-62
2023/09/24 04:43:56;;;;;;;9.45;5.03;;;;;;;9.40;100.00;102286.25;5054347;28;20025;-62
2023/09/24 04:46:22;;;;;;;5.35;4.80;;;;;;;9.39;100.00;102287.19;5058211;28;20497;-62
2023/09/24 04:48:48;;;;;;;11.13;9.75;;;;;;;9.24;100.00;102285.06;5041670;28;20030;-62
2023/09/24 04:51:13;;;;;;;15.35;10.13;;;;;;;9.18;100.00;102280.84;5050465;28;20033;-62
2023/09/24 04:53:41;;;;;;;10.85;9.85;;;;;;;9.18;100.00;102277.34;5038543;28;20033;-62
2023/09/24 04:56:10;;;;;;;13.20;9.85;;;;;;;9.14;100.00;102288.94;5051543;28;20029;-62
2023/09/24 04:58:35;;;;;;;10.40;5.10;;;;;;;9.30;100.00;102285.72;5056779;28;20049;-62
2023/09/24 05:01:05;;;;;;;13.20;9.70;;;;;;;9.14;100.00;102289.81;5049053;28;20032;-62
2023/09/24 05:03:32;;;;;;;11.82;9.73;;;;;;;9.05;100.00;102275.06;5046639;28;20032;-62
2023/09/24 05:05:57;;;;;;;11.48;10.15;;;;;;;9.06;100.00;102286.56;5052354;28;20029;-61
2023/09/24 05:08:23;;;;;;;10.23;9.07;;;;;;;9.03;100.00;102290.19;5064430;28;20074;-61
2023/09/24 05:10:49;;;;;;;7.80;5.18;;;;;;;9.23;100.00;102296.59;5036226;28;20031;-62
2023/09/24 05:13:15;;;;;;;9.05;5.15;;;;;;;9.27;100.00;102293.81;5039443;28;20531;-62
2023/09/24 05:15:40;;;;;;;7.07;4.18;;;;;;;9.25;100.00;102297.41;5051017;28;20029;-62
2023/09/24 05:18:06;;;;;;;6.95;4.75;;;;;;;9.24;100.00;102299.22;5045965;28;20025;-62
2023/09/24 05:20:32;;;;;;;8.85;4.85;;;;;;;9.23;100.00;102297.47;5048650;28;20415;-62
2023/09/24 05:22:57;;;;;;;9.65;8.85;;;;;;;9.09;100.00;102302.41;5031997;28;20031;-61
2023/09/24 05:25:22;;;;;;;12.43;9.73;;;;;;;9.01;100.00;102292.03;5057940;28;20060;-61
2023/09/24 05:27:48;;;;;;;10.88;5.20;;;;;;;9.19;100.00;102309.13;5053048;28;20454;-62
2023/09/24 05:30:13;;;;;;;11.13;9.98;;;;;;;9.01;100.00;102313.25;5052261;28;20048;-62
2023/09/24 05:32:39;;;;;;;6.57;4.88;;;;;;;9.18;100.00;102311.84;5051086;28;20087;-61
2023/09/24 05:35:07;;;;;;;7.95;4.93;;;;;;;9.18;100.00;102312.69;5057290;28;20361;-62
2023/09/24 05:37:32;;;;;;;10.85;4.88;;;;;;;9.17;100.00;102323.34;5057494;28;20056;-62
2023/09/24 05:39:58;;;;;;;10.75;9.65;;;;;;;8.94;100.00;102308.19;5050210;28;20486;-61
2023/09/24 05:42:23;;;;;;;7.20;4.75;;;;;;;9.15;100.00;102333.13;5036738;28;20017;-61
2023/09/24 05:44:48;;;;;;;10.07;9.10;;;;;;;9.00;100.00;102334.50;5052634;28;20126;-61
2023/09/24 05:47:14;;;;;;;11.10;9.52;;;;;;;8.92;100.00;102337.44;5059183;28;20028;-62
2023/09/24 05:49:39;;;;;;;11.13;10.05;;;;;;;9.07;100.00;102338.72;5052436;28;20029;-61
2023/09/24 05:52:07;;;;;;;12.32;9.95;;;;;;;9.10;100.00;102342.13;5066132;28;20021;-62
2023/09/24 05:54:32;;;;;;;10.48;5.00;;;;;;;9.21;100.00;102343.59;5050331;28;20021;-61
2023/09/24 05:56:58;;;;;;;12.57;9.50;;;;;;;9.06;100.00;102331.69;5053829;28;20605;-61
2023/09/24 05:59:24;;;;;;;6.47;5.22;;;;;;;9.24;100.00;102349.66;5049467;28;20124;-62
2023/09/24 06:01:51;;;;;;;11.90;10.85;;;;;;;9.14;100.00;102348.22;5055399;28;20112;-62
2023/09/24 06:04:19;;;;;;;10.05;8.82;;;;;;;9.14;100.00;102350.84;5056990;28;20429;-62
2023/09/24 06:06:45;;;;;;;9.57;5.15;;;;;;;9.23;100.00;102339.94;5042605;28;20056;-62
2023/09/24 06:09:10;;;;;;;14.27;10.30;;;;;;;9.19;100.00;102345.41;5040376;28;20509;-61
2023/09/24 06:11:37;;;;;;;14.50;10.30;;;;;;;9.12;100.00;102338.56;5058778;28;20036;-61
2023/09/24 06:14:08;;;;;;;10.52;4.50;;;;;;;9.27;100.00;102341.59;5068100;28;20020;-61
2023/09/24 06:16:36;;;;;;;11.02;9.65;;;;;;;9.27;100.00;102338.94;5064227;28;20379;-61
2023/09/24 06:19:02;;;;;;;11.77;10.23;;;;;;;9.23;100.00;102345.25;5034975;28;20025;-61
2023/09/24 06:21:27;;;;;;;7.88;4.80;;;;;;;9.38;100.00;102349.16;5059509;28;20066;-61
2023/09/24 06:23:54;;;;;;;5.53;4.93;;;;;;;9.43;100.00;102357.84;5055725;28;20443;-62
2023/09/24 06:26:20;;;;;;;11.65;9.63;;;;;;;9.47;100.00;102353.31;5052916;28;20050;-61
2023/09/24 06:28:45;;;;;;;7.80;4.70;;;;;;;9.51;100.00;102349.63;5045162;28;20112;-61
2023/09/24 06:31:11;;;;;;;13.00;8.75;;;;;;;9.42;100.00;102350.81;5069511;28;20125;-61
2023/09/24 06:33:37;;;;;;;9.95;5.22;;;;;;;9.53;100.00;102353.13;5062388;28;20040;-61
2023/09/24 06:36:03;;;;;;;11.30;10.18;;;;;;;9.50;100.00;102355.84;5069677;28;20039;-62
2023/09/24 06:38:29;;;;;;;10.05;9.13;;;;;;;9.49;100.00;102360.28;5056441;28;20032;-62
2023/09/24 06:41:02;;;;;;;7.47;4.90;;;;;;;9.61;100.00;102360.81;5051709;28;20025;-62
2023/09/24 06:43:27;;;;;;;7.53;4.55;;;;;;;9.65;100.00;102360.66;5046659;28;20016;-61
2023/09/24 06:45:56;;;;;;;10.68;9.45;;;;;;;9.53;100.00;102369.91;5069379;28;20056;-62
2023/09/24 06:48:22;;;;;;;13.75;5.35;;;;;;;9.60;100.00;102357.28;5061250;28;20426;-62
2023/09/24 06:50:48;;;;;;;12.38;9.88;;;;;;;9.59;100.00;102365.28;5052601;28;20106;-62
2023/09/24 06:53:13;;;;;;;14.25;5.47;;;;;;;9.67;100.00;102369.41;5058895;28;20040;-61
2023/09/24 06:55:39;;;;;;;6.07;4.55;;;;;;;9.76;100.00;102373.53;5068426;28;20025;-61
2023/09/24 06:58:04;;;;;;;12.00;10.40;;;;;;;9.67;100.00;102369.41;5059099;28;20048;-61
2023/09/24 07:00:30;;;;;;;13.00;9.35;;;;;;;9.68;100.00;102371.19;5068059;28;20031;-62
2023/09/24 07:02:55;;;;;;;5.63;5.00;;;;;;;9.81;100.00;102370.75;5061455;28;20032;-62
2023/09/24 07:05:26;;;;;;;12.23;9.20;;;;;;;9.81;100.00;102381.38;5047040;28;20145;-62
2023/09/24 07:07:51;;;;;;;8.60;4.75;;;;;;;9.89;100.00;102371.34;5053590;28;20476;-62
2023/09/24 07:10:18;;;;;;;11.13;9.18;;;;;;;9.99;100.00;102380.72;5068000;28;20031;-61
2023/09/24 07:12:44;;;;;;;13.45;8.95;;;;;;;10.00;100.00;102371.84;5065830;28;20032;-62
2023/09/24 07:15:12;;;;;;;16.45;11.48;;;;;;;9.95;100.00;102376.44;5037887;28;20067;-62
2023/09/24 07:17:37;;;;;;;13.63;5.43;;;;;;;10.07;100.00;102380.44;5051150;28;20025;-62
2023/09/24 07:20:05;;;;;;;6.53;4.95;;;;;;;10.12;100.00;102379.34;5056821;28;20035;-61
2023/09/24 07:22:32;;;;;;;13.85;10.32;;;;;;;10.18;100.00;102379.13;5061487;28;20071;-62
2023/09/24 07:24:58;;;;;;;13.65;9.32;;;;;;;10.27;100.00;102379.75;5068313;28;20036;-61
2023/09/24 07:27:24;;;;;;;11.45;8.88;;;;;;;10.31;100.00;102386.69;5040649;28;20028;-61
2023/09/24 07:29:50;;;;;;;7.05;3.92;;;;;;;10.36;100.00;102385.59;5052768;28;20028;-62
2023/09/24 07:32:15;;;;;;;12.27;9.45;;;;;;;10.45;100.00;102395.00;5070890;28;20187;-62
2023/09/24 07:34:40;;;;;;;11.27;8.95;;;;;;;10.58;100.00;102404.25;5071598;28;20032;-61
2023/09/24 07:37:08;;;;;;;12.75;9.07;;;;;;;10.57;100.00;102396.34;5069846;28;20017;-61
2023/09/24 07:39:34;;;;;;;17.17;9.43;;;;;;;10.67;100.00;102403.91;5055475;28;20036;-62
2023/09/24 07:42:00;;;;;;;8.55;5.32;;;;;;;10.71;100.00;102393.13;5072863;28;20479;-61
2023/09/24 07:44:26;;;;;;;16.75;10.18;;;;;;;10.82;100.00;102402.44;5069471;28;20016;-61
2023/09/24 07:46:52;;;;;;;11.27;5.80;;;;;;;10.82;100.00;102399.78;5047259;28;20078;-62
2023/09/24 07:49:17;;;;;;;18.38;9.98;;;;;;;10.98;100.00;102407.19;5060293;28;20027;-62
2023/09/24 07:51:43;;;;;;;10.93;8.93;;;;;;;11.06;100.00;102411.28;5058568;28;20036;-62
2023/09/24 07:54:09;;;;;;;8.48;5.18;;;;;;;11.11;100.00;102409.25;5054236;28;20459;-62
2023/09/24 07:56:34;;;;;;;11.70;4.95;;;;;;;11.19;100.00;102413.44;5058178;28;20104;-62
2023/09/24 07:59:02;;;;;;;16.73;4.50;;;;;;;11.28;100.00;102419.25;5054136;28;20041;-61
2023/09/24 08:01:27;;;;;;;10.70;8.20;;;;;;;11.43;100.00;102419.56;5054614;28;20037;-62
2023/09/24 08:03:53;;;;;;;9.05;3.72;;;;;;;11.49;100.00;102421.97;5036482;28;20110;-62
2023/09/24 08:06:20;;;;;;;13.65;7.43;;;;;;;11.65;100.00;102415.06;5055319;28;20096;-62
2023/09/24 08:08:48;;;;;;;11.27;6.45;;;;;;;11.80;100.00;102416.22;5071836;28;20110;-62
2023/09/24 08:11:13;;;;;;;10.52;6.82;;;;;;;11.88;100.00;102402.56;5061216;28;20027;-61
2023/09/24 08:13:39;;;;;;;8.32;5.93;;;;;;;12.05;100.00;102406.22;5054956;28;20402;-62
2023/09/24 08:16:04;;;;;;;10.60;6.82;;;;;;;12.19;98.86;102405.63;5060879;28;20103;-61
2023/09/24 08:18:29;;;;;;;9.20;6.30;;;;;;;12.37;98.15;102409.25;5072027;28;20028;-62
2023/09/24 08:20:55;;;;;;;11.18;5.97;;;;;;;12.48;98.38;102409.63;5066059;28;20472;-62
2023/09/24 08:23:21;;;;;;;11.80;6.43;;;;;;;12.77;97.52;102417.22;5069219;28;20028;-62
2023/09/24 08:25:49;;;;;;;10.70;5.35;;;;;;;12.98;98.01;102418.00;5069399;28;20044;-62
2023/09/24 08:28:15;;;;;;;10.73;5.43;;;;;;;13.16;95.52;102420.66;5072140;28;20021;-62
2023/09/24 08:30:40;;;;;;;11.85;5.10;;;;;;;13.30;94.07;102416.47;5065468;28;20020;-62
2023/09/24 08:33:07;;;;;;;6.28;3.13;;;;;;;13.44;94.46;102416.63;5071587;28;20025;-62
2023/09/24 08:35:34;;;;;;;8.63;2.90;;;;;;;13.64;93.91;102423.66;5033864;28;20542;-62
2023/09/24 08:38:00;;;;;;;6.90;4.43;;;;;;;13.93;91.87;102411.47;5063912;28;20036;-62
2023/09/24 08:40:30;;;;;;;6.50;4.53;;;;;;;13.99;91.86;102413.81;5052197;28;20047;-62
2023/09/24 08:42:57;;;;;;;7.60;4.65;;;;;;;14.23;88.83;102425.03;5043008;28;20452;-63
2023/09/24 08:45:26;;;;;;;7.68;4.90;;;;;;;14.38;89.42;102425.16;5060547;28;20025;-62
2023/09/24 08:47:54;;;;;;;10.10;5.57;;;;;;;14.61;90.65;102423.97;5064142;28;20457;-62
2023/09/24 08:50:20;;;;;;;6.63;4.68;;;;;;;14.61;89.02;102429.31;5053538;28;20096;-62
2023/09/24 08:52:48;;;;;;;7.15;3.85;;;;;;;14.66;86.25;102430.78;5036385;28;20539;-62
2023/09/24 08:55:14;;;;;;;6.10;3.67;;;;;;;14.76;87.38;102437.38;5054523;28;20553;-62
2023/09/24 08:57:42;;;;;;;7.32;3.83;;;;;;;14.90;86.44;102433.06;5059151;28;20024;-62
2023/09/24 09:00:10;;;;;;;7.80;3.85;;;;;;;15.03;85.29;102439.47;5058687;28;20489;-62
2023/09/24 09:02:36;;;;;;;5.85;3.70;;;;;;;14.90;84.51;102430.38;5043713;28;20545;-62
2023/09/24 09:05:09;;;;;;;9.43;4.00;;;;;;;15.11;84.93;102431.84;5052985;28;20032;-62
2023/09/24 09:07:40;;;;;;;7.80;3.85;;;;;;;15.19;82.60;102436.78;5034766;28;20071;-62
2023/09/24 09:10:06;;;;;;;6.80;2.47;;;;;;;15.34;83.46;102432.34;5052556;28;20028;-62
2023/09/24 09:12:33;;;;;;;7.65;3.70;;;;;;;15.51;84.76;102431.38;5063741;28;20380;-62
2023/09/24 09:14:59;;;;;;;8.13;3.70;;;;;;;15.51;81.69;102426.88;5069677;28;20035;-62
2023/09/24 09:17:39;;;;;;;5.07;3.53;;;;;;;15.69;83.81;102424.09;5060362;28;20476;-62
2023/09/24 09:20:05;;;;;;;5.20;3.60;;;;;;;15.81;80.62;102418.84;5052803;28;20032;-62
2023/09/24 09:22:32;;;;;;;8.70;3.40;;;;;;;15.89;79.73;102413.91;5054546;28;20032;-62
2023/09/24 09:25:08;;;;;;;3.97;3.00;;;;;;;15.95;79.85;102417.16;5053375;28;20028;-63
2023/09/24 09:27:35;;;;;;;5.93;3.05;;;;;;;16.18;80.08;102405.00;5046268;28;20447;-63
2023/09/24 09:30:16;;;;;;;5.18;3.20;;;;;;;16.12;80.09;102407.13;5057032;28;20042;-63
2023/09/24 09:32:43;;;;;;;6.97;3.40;;;;;;;16.40;79.67;102394.66;5060769;28;20067;-62
2023/09/24 09:35:09;;;;;;;7.82;4.45;;;;;;;16.34;77.39;102395.91;5053684;28;20028;-62
2023/09/24 09:37:35;;;;;;;7.18;3.70;;;;;;;16.42;78.43;102397.25;5063108;28;20052;-62
2023/09/24 09:40:00;;;;;;;7.28;3.10;;;;;;;16.61;77.67;102373.63;5069694;28;20066;-63
2023/09/24 09:42:30;;;;;;;5.47;3.35;;;;;;;16.70;80.54;102386.47;5064211;28;20111;-63
2023/09/24 09:45:02;;;;;;;6.75;3.35;;;;;;;16.81;76.13;102380.44;5063485;28;20028;-62
2023/09/24 09:47:28;;;;;;;7.57;3.28;;;;;;;16.86;75.21;102381.00;5053959;28;20028;-63
2023/09/24 09:50:00;;;;;;;4.82;3.50;;;;;;;16.90;73.41;102384.34;5052129;28;20396;-63
2023/09/24 09:52:37;;;;;;;8.23;3.67;;;;;;;17.12;73.95;102381.09;5057119;28;20021;-62
2023/09/24 09:55:05;;;;;;;7.20;2.97;;;;;;;17.06;70.68;102387.78;5054961;28;20491;-63
2023/09/24 09:57:34;;;;;;;5.80;2.95;;;;;;;17.00;70.11;102383.66;5073628;28;20066;-63
2023/09/24 10:00:05;;;;;;;6.65;2.92;;;;;;;17.13;69.36;102386.41;5070100;28;20105;-63
2023/09/24 10:02:33;;;;;;;6.28;3.60;;;;;;;17.24;69.48;102381.16;5063672;28;20033;-63
2023/09/24 10:05:00;;;;;;;3.25;2.20;;;;;;;17.35;66.65;102376.88;5064670;28;20028;-64
2023/09/24 10:07:25;;;;;;;5.72;3.10;;;;;;;17.52;68.87;102362.31;5038352;28;20058;-63
2023/09/24 10:09:51;;;;;;;4.80;2.95;;;;;;;17.74;67.05;102365.25;5067834;28;20410;-63
2023/09/24 10:12:37;;;;;;;3.60;2.85;;;;;;;17.87;67.86;102365.28;5064738;28;20029;-63
2023/09/24 10:15:27;;;;;;;5.15;3.38;;;;;;;17.91;67.26;102350.63;5031925;28;20407;-63
2023/09/24 10:18:08;;;;;;;6.10;3.15;;;;;;;18.06;67.08;102354.06;5052983;28;20070;-63
2023/09/24 10:20:48;;;;;;;5.47;3.20;;;;;;;18.31;66.92;102361.28;5053382;28;20353;-63
2023/09/24 10:23:28;;;;;;;3.58;2.90;;;;;;;18.42;66.37;102365.91;5063688;28;20530;-64
2023/09/24 10:25:56;;;;;;;4.20;3.28;;;;;;;18.58;63.84;102359.28;5066865;28;20029;-63
2023/09/24 10:28:42;;;;;;;3.40;2.92;;;;;;;18.79;63.55;102353.31;5061790;28;20419;-63
2023/09/24 10:31:09;;;;;;;5.13;2.95;;;;;;;19.04;60.66;102353.22;5050990;28;20617;-63
2023/09/24 10:33:52;;;;;;;6.32;2.90;;;;;;;19.20;60.84;102352.06;5068089;28;20020;-63
2023/09/24 10:36:23;;;;;;;3.67;2.67;;;;;;;19.31;58.18;102357.50;5052122;28;20052;-63
2023/09/24 10:39:03;;;;;;;8.43;3.00;;;;;;;19.51;58.53;102361.38;5049276;28;20111;-63
2023/09/24 10:41:32;;;;;;;4.07;2.63;;;;;;;19.42;56.14;102360.25;5051467;28;20523;-64
2023/09/24 10:44:22;;;;;;;3.85;2.97;;;;;;;19.77;56.67;102358.56;5051446;28;20502;-63
2023/09/24 10:46:48;;;;;;;4.85;2.80;;;;;;;19.50;56.35;102340.75;5051632;28;20032;-63
2023/09/24 10:49:22;;;;;;;4.82;2.70;;;;;;;20.12;59.08;102348.53;5051575;28;20389;-63
2023/09/24 10:51:48;;;;;;;11.77;3.42;;;;;;;20.24;55.36;102349.38;5057373;28;20051;-63
2023/09/24 10:54:15;;;;;;;5.22;2.70;;;;;;;20.45;53.14;102345.94;5069099;28;20024;-63
2023/09/24 10:56:45;;;;;;;4.97;2.85;;;;;;;20.61;53.50;102338.31;5069899;28;20032;-64
2023/09/24 10:59:10;;;;;;;6.93;2.75;;;;;;;20.79;52.10;102330.53;5070975;28;20036;-66
2023/09/24 11:01:35;;;;;;;3.40;2.70;;;;;;;21.07;51.03;102340.75;5053637;28;20066;-63
2023/09/24 11:04:01;;;;;;;4.13;2.42;;;;;;;21.29;49.94;102325.41;5071516;28;20028;-63
2023/09/24 11:06:31;;;;;;;4.53;2.67;;;;;;;21.82;51.11;102354.31;5070955;28;20103;-63
2023/09/24 11:09:17;;;;;;;3.10;2.20;;;;;;;22.42;51.34;102349.94;5068342;28;20021;-63
2023/09/24 11:11:43;;;;;;;4.13;2.63;;;;;;;22.77;49.14;102337.75;5071658;28;20024;-63
2023/09/24 11:14:23;;;;;;;4.80;2.50;;;;;;;23.28;48.38;102336.66;5053466;28;20411;-63
2023/09/24 11:16:53;;;;;;;4.15;2.80;;;;;;;23.36;46.30;102328.66;5071421;28;20032;-63
2023/09/24 11:19:41;;;;;;;3.90;2.28;;;;;;;23.84;46.43;102332.31;5067456;28;20051;-63